Buffalo, WY

12:14 PM MDT on September 17, 2014 (GMT -0600)
Esponda Ranch | Change Station
CLOSE
Current Station
Personal Weather Station
Location: Buffalo, WY
Elevation: 4665 ft
Nearby Weather Stations

Elev 4665 ft 44.32 °N, 106.67 °W | Updated 9 minutes ago

Overcast
Overcast
75.7 °F
Feels Like 78 °F
N
3.0
Wind Variable Wind from ESE
Gusts 5.0 mph

Today
High -- | Low -- °F
--% Chance of Precip.
Yesterday
High -- | Low -- °F
Precip. -- in
6:48 AM 7:13 PM
Waning Crescent, 34% visible
Pressure 29.87 in
Visibility 10.0 miles
Clouds Clear
Heat Index 78 °F
Dew Point 52 °F
Humidity 44%
Rainfall 0.00 in
Snow Depth 0 in , 0 in , 1 in
UV 5 out of 12
Pollen 5.80 out of 12
Air Quality Not available.
Flu Activity Not available.
METAR KBYG 171653Z AUTO 15012KT 10SM -RA CLR 24/06 A3003 RMK AO2 SLP114 P0000 T02440056

More Conditions Fewer Conditions

Pressure 29.87 in
Visibility 10.0 miles
Clouds Clear
Heat Index 78 °F
Dew Point 52 °F
Humidity 44%
Rainfall 0.00 in
Snow Depth 0 in , 0 in , 1 in
UV 5 out of 12
Pollen 5.80 out of 12
Air Quality Not available.
Flu Activity Not available.
METAR KBYG 171653Z AUTO 15012KT 10SM -RA CLR 24/06 A3003 RMK AO2 SLP114 P0000 T02440056

More Conditions Fewer Conditions

10-Day Weather Forecast

Almanac

Astronomy

Sep. 17, 2014 Rise Set
Actual Time 6:48 AM MDT 7:13 PM MDT
Civil Twilight 6:19 AM MDT 7:42 PM MDT
Nautical Twilight 5:44 AM MDT 8:16 PM MDT
Astronomical Twilight 5:09 AM MDT 8:52 PM MDT
Moon 12:41 AM MDT 3:34 PM MDT
Length of Visible Light 13h 23m
Length of Day
12h 25m
Tomorrow will be 3m 2s shorter.
Waning Crescent, 34% of the Moon is Illuminated
Today
Waning Crescent
Sep 24
New
Oct 1
First Quarter
Oct 8
Full
Oct 15
Last Quarter

Today's Extremes

State Highs State Lows

Community

WunderPhotos

Upload Photos

1,754,122 photos uploaded!

WunderBlogs® & News

Nearby

Snow Depth

Station Depth Elevation
Granite Creek 0 in 6770 ft
East Rim Divide 0 in 7930 ft
New Fork Lake 1 in 8340 ft
Loomis Park 0 in 8240 ft
Salt River Summit 0 in 7600 ft

Earthquake Activity

City Distance Mag. Time & Date
No recent earthquake activity has been reported nearby.
Minimum magnitude displayed is 2.5.

Coastal Water Temperatures

Place Temperature
No Stations Reporting

Nearby Weather Stations